sensor_id;sensor_type;location;lat;lon;timestamp;P1;durP1;ratioP1;P2;durP2;ratioP2
49578;SDS011;35483;50.828;3.228;2022-07-17T00:00:53;6.60;;;3.70;;
49578;SDS011;35483;50.828;3.228;2022-07-17T00:03:19;5.03;;;3.70;;
49578;SDS011;35483;50.828;3.228;2022-07-17T00:05:44;4.00;;;3.60;;
49578;SDS011;35483;50.828;3.228;2022-07-17T00:08:10;5.38;;;3.92;;
49578;SDS011;35483;50.828;3.228;2022-07-17T00:10:38;6.75;;;4.28;;
49578;SDS011;35483;50.828;3.228;2022-07-17T00:13:06;5.38;;;4.43;;
49578;SDS011;35483;50.828;3.228;2022-07-17T00:15:33;7.32;;;4.38;;
49578;SDS011;35483;50.828;3.228;2022-07-17T00:17:59;6.13;;;4.80;;
49578;SDS011;35483;50.828;3.228;2022-07-17T00:20:25;5.97;;;4.95;;
49578;SDS011;35483;50.828;3.228;2022-07-17T00:22:52;6.50;;;4.50;;
49578;SDS011;35483;50.828;3.228;2022-07-17T00:25:19;5.85;;;4.68;;
49578;SDS011;35483;50.828;3.228;2022-07-17T00:27:45;5.22;;;4.60;;
49578;SDS011;35483;50.828;3.228;2022-07-17T00:30:12;5.30;;;4.63;;
49578;SDS011;35483;50.828;3.228;2022-07-17T00:32:38;7.00;;;4.90;;
49578;SDS011;35483;50.828;3.228;2022-07-17T00:35:05;6.82;;;4.80;;
49578;SDS011;35483;50.828;3.228;2022-07-17T00:37:37;6.05;;;5.45;;
49578;SDS011;35483;50.828;3.228;2022-07-17T00:40:10;8.38;;;4.93;;
49578;SDS011;35483;50.828;3.228;2022-07-17T00:42:41;7.00;;;4.82;;
49578;SDS011;35483;50.828;3.228;2022-07-17T00:45:10;6.40;;;4.90;;
49578;SDS011;35483;50.828;3.228;2022-07-17T00:47:55;6.63;;;5.10;;
49578;SDS011;35483;50.828;3.228;2022-07-17T00:50:24;5.80;;;5.22;;
49578;SDS011;35483;50.828;3.228;2022-07-17T00:52:55;6.43;;;4.87;;
49578;SDS011;35483;50.828;3.228;2022-07-17T00:55:21;8.02;;;5.65;;
49578;SDS011;35483;50.828;3.228;2022-07-17T00:57:48;7.68;;;5.28;;
49578;SDS011;35483;50.828;3.228;2022-07-17T01:00:16;6.75;;;5.18;;
49578;SDS011;35483;50.828;3.228;2022-07-17T01:02:47;6.75;;;4.88;;
49578;SDS011;35483;50.828;3.228;2022-07-17T01:05:14;8.20;;;5.30;;
49578;SDS011;35483;50.828;3.228;2022-07-17T01:07:41;5.75;;;4.85;;
49578;SDS011;35483;50.828;3.228;2022-07-17T01:10:08;6.00;;;5.38;;
49578;SDS011;35483;50.828;3.228;2022-07-17T01:12:34;6.15;;;5.05;;
49578;SDS011;35483;50.828;3.228;2022-07-17T01:15:00;6.43;;;4.70;;
49578;SDS011;35483;50.828;3.228;2022-07-17T01:17:27;6.63;;;5.22;;
49578;SDS011;35483;50.828;3.228;2022-07-17T01:19:53;7.43;;;5.72;;
49578;SDS011;35483;50.828;3.228;2022-07-17T01:22:19;6.82;;;5.50;;
49578;SDS011;35483;50.828;3.228;2022-07-17T01:24:45;6.90;;;5.00;;
49578;SDS011;35483;50.828;3.228;2022-07-17T01:27:10;7.07;;;5.28;;
49578;SDS011;35483;50.828;3.228;2022-07-17T01:29:37;5.35;;;4.40;;
49578;SDS011;35483;50.828;3.228;2022-07-17T01:32:03;5.55;;;4.65;;
49578;SDS011;35483;50.828;3.228;2022-07-17T01:34:29;6.70;;;4.28;;
49578;SDS011;35483;50.828;3.228;2022-07-17T01:36:55;5.22;;;4.57;;
49578;SDS011;35483;50.828;3.228;2022-07-17T01:39:21;5.45;;;4.35;;
49578;SDS011;35483;50.828;3.228;2022-07-17T01:42:06;4.72;;;4.28;;
49578;SDS011;35483;50.828;3.228;2022-07-17T01:44:32;4.68;;;3.90;;
49578;SDS011;35483;50.828;3.228;2022-07-17T01:46:58;4.63;;;4.10;;
49578;SDS011;35483;50.828;3.228;2022-07-17T01:49:24;5.43;;;4.25;;
49578;SDS011;35483;50.828;3.228;2022-07-17T01:51:50;4.50;;;3.25;;
49578;SDS011;35483;50.828;3.228;2022-07-17T01:54:16;5.93;;;3.67;;
49578;SDS011;35483;50.828;3.228;2022-07-17T01:56:41;5.70;;;3.65;;
49578;SDS011;35483;50.828;3.228;2022-07-17T01:59:07;4.53;;;3.40;;
49578;SDS011;35483;50.828;3.228;2022-07-17T02:01:33;4.40;;;3.60;;
49578;SDS011;35483;50.828;3.228;2022-07-17T02:03:59;6.70;;;3.60;;
49578;SDS011;35483;50.828;3.228;2022-07-17T02:06:24;5.15;;;3.22;;
49578;SDS011;35483;50.828;3.228;2022-07-17T02:08:50;4.88;;;3.40;;
49578;SDS011;35483;50.828;3.228;2022-07-17T02:11:16;4.60;;;3.55;;
49578;SDS011;35483;50.828;3.228;2022-07-17T02:13:42;4.53;;;3.42;;
49578;SDS011;35483;50.828;3.228;2022-07-17T02:16:08;4.05;;;2.97;;
49578;SDS011;35483;50.828;3.228;2022-07-17T02:18:34;3.58;;;3.10;;
49578;SDS011;35483;50.828;3.228;2022-07-17T02:20:59;4.60;;;3.63;;
49578;SDS011;35483;50.828;3.228;2022-07-17T02:23:25;4.80;;;3.60;;
49578;SDS011;35483;50.828;3.228;2022-07-17T02:25:54;3.90;;;3.20;;
49578;SDS011;35483;50.828;3.228;2022-07-17T02:28:20;5.18;;;3.63;;
49578;SDS011;35483;50.828;3.228;2022-07-17T02:30:46;6.50;;;3.63;;
49578;SDS011;35483;50.828;3.228;2022-07-17T02:33:12;7.38;;;3.80;;
49578;SDS011;35483;50.828;3.228;2022-07-17T02:35:38;5.93;;;3.42;;
49578;SDS011;35483;50.828;3.228;2022-07-17T02:38:04;6.28;;;3.92;;
49578;SDS011;35483;50.828;3.228;2022-07-17T02:40:30;4.68;;;3.80;;
49578;SDS011;35483;50.828;3.228;2022-07-17T02:42:55;3.72;;;3.42;;
49578;SDS011;35483;50.828;3.228;2022-07-17T02:45:21;5.50;;;3.47;;
49578;SDS011;35483;50.828;3.228;2022-07-17T02:47:49;4.78;;;3.50;;
49578;SDS011;35483;50.828;3.228;2022-07-17T02:50:16;4.78;;;3.70;;
49578;SDS011;35483;50.828;3.228;2022-07-17T02:52:42;6.88;;;4.00;;
49578;SDS011;35483;50.828;3.228;2022-07-17T02:55:08;4.13;;;3.53;;
49578;SDS011;35483;50.828;3.228;2022-07-17T02:57:35;4.45;;;3.40;;
49578;SDS011;35483;50.828;3.228;2022-07-17T03:00:06;5.18;;;3.72;;
49578;SDS011;35483;50.828;3.228;2022-07-17T03:02:34;6.05;;;3.60;;
49578;SDS011;35483;50.828;3.228;2022-07-17T03:04:59;5.40;;;3.97;;
49578;SDS011;35483;50.828;3.228;2022-07-17T03:07:25;9.05;;;4.10;;
49578;SDS011;35483;50.828;3.228;2022-07-17T03:09:51;4.97;;;3.97;;
49578;SDS011;35483;50.828;3.228;2022-07-17T03:12:17;5.28;;;3.80;;
49578;SDS011;35483;50.828;3.228;2022-07-17T03:14:42;8.20;;;4.75;;
49578;SDS011;35483;50.828;3.228;2022-07-17T03:17:08;6.85;;;3.78;;
49578;SDS011;35483;50.828;3.228;2022-07-17T03:19:34;7.25;;;4.53;;
49578;SDS011;35483;50.828;3.228;2022-07-17T03:21:59;6.28;;;4.35;;
49578;SDS011;35483;50.828;3.228;2022-07-17T03:24:25;5.55;;;4.47;;
49578;SDS011;35483;50.828;3.228;2022-07-17T03:26:51;7.20;;;4.68;;
49578;SDS011;35483;50.828;3.228;2022-07-17T03:29:17;7.05;;;4.45;;
49578;SDS011;35483;50.828;3.228;2022-07-17T03:31:45;7.47;;;4.75;;
49578;SDS011;35483;50.828;3.228;2022-07-17T03:34:11;4.47;;;4.03;;
49578;SDS011;35483;50.828;3.228;2022-07-17T03:36:38;5.50;;;4.60;;
49578;SDS011;35483;50.828;3.228;2022-07-17T03:39:03;4.55;;;3.97;;
49578;SDS011;35483;50.828;3.228;2022-07-17T03:41:29;5.80;;;4.75;;
49578;SDS011;35483;50.828;3.228;2022-07-17T03:43:55;4.88;;;4.35;;
49578;SDS011;35483;50.828;3.228;2022-07-17T03:46:21;5.40;;;4.55;;
49578;SDS011;35483;50.828;3.228;2022-07-17T03:48:47;6.43;;;4.32;;
49578;SDS011;35483;50.828;3.228;2022-07-17T03:51:13;5.15;;;3.83;;
49578;SDS011;35483;50.828;3.228;2022-07-17T03:53:39;4.75;;;4.28;;
49578;SDS011;35483;50.828;3.228;2022-07-17T03:56:04;5.47;;;4.15;;
49578;SDS011;35483;50.828;3.228;2022-07-17T03:58:30;5.22;;;4.55;;
49578;SDS011;35483;50.828;3.228;2022-07-17T04:00:57;5.85;;;4.15;;
49578;SDS011;35483;50.828;3.228;2022-07-17T04:03:23;6.05;;;4.50;;
49578;SDS011;35483;50.828;3.228;2022-07-17T04:05:49;5.50;;;4.50;;
49578;SDS011;35483;50.828;3.228;2022-07-17T04:08:14;6.32;;;4.30;;
49578;SDS011;35483;50.828;3.228;2022-07-17T04:10:40;5.25;;;4.60;;
49578;SDS011;35483;50.828;3.228;2022-07-17T04:13:06;6.32;;;4.25;;
49578;SDS011;35483;50.828;3.228;2022-07-17T04:15:31;5.78;;;4.30;;
49578;SDS011;35483;50.828;3.228;2022-07-17T04:18:22;6.63;;;4.88;;
49578;SDS011;35483;50.828;3.228;2022-07-17T04:20:49;6.18;;;4.32;;
49578;SDS011;35483;50.828;3.228;2022-07-17T04:23:16;9.15;;;4.70;;
49578;SDS011;35483;50.828;3.228;2022-07-17T04:25:42;6.10;;;4.20;;
49578;SDS011;35483;50.828;3.228;2022-07-17T04:28:08;5.00;;;4.40;;
49578;SDS011;35483;50.828;3.228;2022-07-17T04:30:34;5.45;;;4.03;;
49578;SDS011;35483;50.828;3.228;2022-07-17T04:33:00;5.15;;;4.03;;
49578;SDS011;35483;50.828;3.228;2022-07-17T04:35:26;5.13;;;4.00;;
49578;SDS011;35483;50.828;3.228;2022-07-17T04:37:52;7.45;;;4.50;;
49578;SDS011;35483;50.828;3.228;2022-07-17T04:40:17;5.43;;;4.25;;
49578;SDS011;35483;50.828;3.228;2022-07-17T04:42:43;6.30;;;4.75;;
49578;SDS011;35483;50.828;3.228;2022-07-17T04:45:09;7.15;;;4.97;;
49578;SDS011;35483;50.828;3.228;2022-07-17T04:47:35;5.75;;;4.68;;
49578;SDS011;35483;50.828;3.228;2022-07-17T04:50:01;6.35;;;4.32;;
49578;SDS011;35483;50.828;3.228;2022-07-17T04:52:27;6.75;;;4.45;;
49578;SDS011;35483;50.828;3.228;2022-07-17T04:54:54;5.68;;;4.30;;
49578;SDS011;35483;50.828;3.228;2022-07-17T04:57:20;6.70;;;3.83;;
49578;SDS011;35483;50.828;3.228;2022-07-17T04:59:46;6.85;;;4.25;;
49578;SDS011;35483;50.828;3.228;2022-07-17T05:02:11;7.43;;;4.40;;
49578;SDS011;35483;50.828;3.228;2022-07-17T05:04:37;8.38;;;3.90;;
49578;SDS011;35483;50.828;3.228;2022-07-17T05:07:03;5.60;;;4.28;;
49578;SDS011;35483;50.828;3.228;2022-07-17T05:09:28;6.55;;;4.00;;
49578;SDS011;35483;50.828;3.228;2022-07-17T05:11:54;4.75;;;4.25;;
49578;SDS011;35483;50.828;3.228;2022-07-17T05:14:19;7.28;;;3.83;;
49578;SDS011;35483;50.828;3.228;2022-07-17T05:16:45;5.55;;;3.85;;
49578;SDS011;35483;50.828;3.228;2022-07-17T05:19:11;5.55;;;4.38;;
49578;SDS011;35483;50.828;3.228;2022-07-17T05:21:36;6.68;;;3.65;;
49578;SDS011;35483;50.828;3.228;2022-07-17T05:24:02;4.82;;;3.80;;
49578;SDS011;35483;50.828;3.228;2022-07-17T05:26:28;6.00;;;4.15;;
49578;SDS011;35483;50.828;3.228;2022-07-17T05:28:54;5.35;;;3.47;;
49578;SDS011;35483;50.828;3.228;2022-07-17T05:31:19;6.65;;;4.38;;
49578;SDS011;35483;50.828;3.228;2022-07-17T05:33:45;4.45;;;3.80;;
49578;SDS011;35483;50.828;3.228;2022-07-17T05:36:11;5.75;;;4.40;;
49578;SDS011;35483;50.828;3.228;2022-07-17T05:38:36;6.65;;;4.32;;
49578;SDS011;35483;50.828;3.228;2022-07-17T05:41:02;6.45;;;3.70;;
49578;SDS011;35483;50.828;3.228;2022-07-17T05:43:28;5.20;;;3.55;;
49578;SDS011;35483;50.828;3.228;2022-07-17T05:45:55;5.93;;;3.85;;
49578;SDS011;35483;50.828;3.228;2022-07-17T05:48:21;6.32;;;3.90;;
49578;SDS011;35483;50.828;3.228;2022-07-17T05:50:47;8.15;;;4.00;;
49578;SDS011;35483;50.828;3.228;2022-07-17T05:53:13;6.43;;;3.47;;
49578;SDS011;35483;50.828;3.228;2022-07-17T05:55:39;5.57;;;3.72;;
49578;SDS011;35483;50.828;3.228;2022-07-17T05:58:06;6.18;;;3.63;;
49578;SDS011;35483;50.828;3.228;2022-07-17T06:00:32;9.27;;;3.65;;
49578;SDS011;35483;50.828;3.228;2022-07-17T06:02:57;6.72;;;3.50;;
49578;SDS011;35483;50.828;3.228;2022-07-17T06:05:23;4.70;;;3.85;;
49578;SDS011;35483;50.828;3.228;2022-07-17T06:07:50;4.93;;;3.63;;
49578;SDS011;35483;50.828;3.228;2022-07-17T06:10:16;5.55;;;3.40;;
49578;SDS011;35483;50.828;3.228;2022-07-17T06:12:42;6.53;;;3.28;;
49578;SDS011;35483;50.828;3.228;2022-07-17T06:15:08;7.55;;;3.88;;
49578;SDS011;35483;50.828;3.228;2022-07-17T06:17:34;4.80;;;2.90;;
49578;SDS011;35483;50.828;3.228;2022-07-17T06:20:00;8.52;;;3.30;;
49578;SDS011;35483;50.828;3.228;2022-07-17T06:22:26;5.60;;;3.40;;
49578;SDS011;35483;50.828;3.228;2022-07-17T06:24:51;5.38;;;2.88;;
49578;SDS011;35483;50.828;3.228;2022-07-17T06:27:17;5.82;;;3.20;;
49578;SDS011;35483;50.828;3.228;2022-07-17T06:29:43;5.40;;;3.17;;
49578;SDS011;35483;50.828;3.228;2022-07-17T06:32:08;5.20;;;2.83;;
49578;SDS011;35483;50.828;3.228;2022-07-17T06:34:34;5.60;;;2.83;;
49578;SDS011;35483;50.828;3.228;2022-07-17T06:37:00;5.45;;;2.22;;
49578;SDS011;35483;50.828;3.228;2022-07-17T06:39:25;4.85;;;2.38;;
49578;SDS011;35483;50.828;3.228;2022-07-17T06:41:51;7.00;;;2.72;;
49578;SDS011;35483;50.828;3.228;2022-07-17T06:44:17;4.95;;;2.45;;
49578;SDS011;35483;50.828;3.228;2022-07-17T06:46:42;4.80;;;2.20;;
49578;SDS011;35483;50.828;3.228;2022-07-17T06:49:08;3.25;;;2.60;;
49578;SDS011;35483;50.828;3.228;2022-07-17T06:51:35;4.88;;;2.25;;
49578;SDS011;35483;50.828;3.228;2022-07-17T06:54:00;4.95;;;2.92;;
49578;SDS011;35483;50.828;3.228;2022-07-17T06:56:26;3.38;;;2.35;;
49578;SDS011;35483;50.828;3.228;2022-07-17T06:58:52;5.38;;;2.55;;
49578;SDS011;35483;50.828;3.228;2022-07-17T07:01:17;4.05;;;2.67;;
49578;SDS011;35483;50.828;3.228;2022-07-17T07:03:43;6.63;;;2.92;;
49578;SDS011;35483;50.828;3.228;2022-07-17T07:06:09;6.68;;;2.58;;
49578;SDS011;35483;50.828;3.228;2022-07-17T07:08:34;3.67;;;2.20;;
49578;SDS011;35483;50.828;3.228;2022-07-17T07:11:01;5.40;;;2.53;;
49578;SDS011;35483;50.828;3.228;2022-07-17T07:13:27;4.45;;;2.42;;
49578;SDS011;35483;50.828;3.228;2022-07-17T07:15:53;4.75;;;2.40;;
49578;SDS011;35483;50.828;3.228;2022-07-17T07:18:20;2.92;;;2.30;;
49578;SDS011;35483;50.828;3.228;2022-07-17T07:20:46;5.28;;;2.60;;
49578;SDS011;35483;50.828;3.228;2022-07-17T07:23:12;7.05;;;2.70;;
49578;SDS011;35483;50.828;3.228;2022-07-17T07:25:38;7.90;;;2.63;;
49578;SDS011;35483;50.828;3.228;2022-07-17T07:28:03;5.60;;;2.55;;
49578;SDS011;35483;50.828;3.228;2022-07-17T07:30:29;6.68;;;2.55;;
49578;SDS011;35483;50.828;3.228;2022-07-17T07:32:55;4.90;;;2.33;;
49578;SDS011;35483;50.828;3.228;2022-07-17T07:35:21;5.32;;;2.50;;
49578;SDS011;35483;50.828;3.228;2022-07-17T07:37:47;5.18;;;2.20;;
49578;SDS011;35483;50.828;3.228;2022-07-17T07:40:13;4.47;;;2.30;;
49578;SDS011;35483;50.828;3.228;2022-07-17T07:42:39;4.07;;;2.17;;
49578;SDS011;35483;50.828;3.228;2022-07-17T07:45:05;5.90;;;2.25;;
49578;SDS011;35483;50.828;3.228;2022-07-17T07:47:31;6.55;;;2.25;;
49578;SDS011;35483;50.828;3.228;2022-07-17T07:49:57;4.55;;;2.13;;
49578;SDS011;35483;50.828;3.228;2022-07-17T07:52:22;3.60;;;2.22;;
49578;SDS011;35483;50.828;3.228;2022-07-17T07:54:48;3.55;;;2.40;;
49578;SDS011;35483;50.828;3.228;2022-07-17T07:57:14;3.92;;;2.50;;
49578;SDS011;35483;50.828;3.228;2022-07-17T07:59:40;6.15;;;2.58;;
49578;SDS011;35483;50.828;3.228;2022-07-17T08:02:06;4.70;;;2.40;;
49578;SDS011;35483;50.828;3.228;2022-07-17T08:04:32;4.97;;;2.55;;
49578;SDS011;35483;50.828;3.228;2022-07-17T08:06:59;4.60;;;2.20;;
49578;SDS011;35483;50.828;3.228;2022-07-17T08:09:24;5.10;;;2.78;;
49578;SDS011;35483;50.828;3.228;2022-07-17T08:11:50;5.78;;;2.17;;
49578;SDS011;35483;50.828;3.228;2022-07-17T08:14:16;3.65;;;2.38;;
49578;SDS011;35483;50.828;3.228;2022-07-17T08:16:41;4.28;;;2.13;;
49578;SDS011;35483;50.828;3.228;2022-07-17T08:19:07;7.43;;;2.47;;
49578;SDS011;35483;50.828;3.228;2022-07-17T08:21:33;5.18;;;2.10;;
49578;SDS011;35483;50.828;3.228;2022-07-17T08:23:58;3.22;;;2.47;;
49578;SDS011;35483;50.828;3.228;2022-07-17T08:26:24;4.72;;;2.10;;
49578;SDS011;35483;50.828;3.228;2022-07-17T08:28:49;4.05;;;1.83;;
49578;SDS011;35483;50.828;3.228;2022-07-17T08:31:15;5.80;;;1.92;;
49578;SDS011;35483;50.828;3.228;2022-07-17T08:33:41;3.53;;;2.20;;
49578;SDS011;35483;50.828;3.228;2022-07-17T08:36:06;10.43;;;2.00;;
49578;SDS011;35483;50.828;3.228;2022-07-17T08:38:32;1.88;;;1.63;;
49578;SDS011;35483;50.828;3.228;2022-07-17T08:40:58;3.78;;;1.83;;
49578;SDS011;35483;50.828;3.228;2022-07-17T08:43:24;5.10;;;2.35;;
49578;SDS011;35483;50.828;3.228;2022-07-17T08:45:50;6.18;;;2.35;;
49578;SDS011;35483;50.828;3.228;2022-07-17T08:48:17;3.60;;;1.70;;
49578;SDS011;35483;50.828;3.228;2022-07-17T08:50:43;3.88;;;1.50;;
49578;SDS011;35483;50.828;3.228;2022-07-17T08:53:10;2.63;;;1.60;;
49578;SDS011;35483;50.828;3.228;2022-07-17T08:55:36;3.13;;;1.55;;
49578;SDS011;35483;50.828;3.228;2022-07-17T08:58:02;3.28;;;1.55;;
49578;SDS011;35483;50.828;3.228;2022-07-17T09:00:29;3.65;;;1.40;;
49578;SDS011;35483;50.828;3.228;2022-07-17T09:05:28;3.53;;;1.48;;
49578;SDS011;35483;50.828;3.228;2022-07-17T09:07:59;2.65;;;1.30;;
49578;SDS011;35483;50.828;3.228;2022-07-17T09:10:45;4.68;;;1.83;;
49578;SDS011;35483;50.828;3.228;2022-07-17T09:15:43;3.72;;;1.40;;
49578;SDS011;35483;50.828;3.228;2022-07-17T09:18:10;3.85;;;1.73;;
49578;SDS011;35483;50.828;3.228;2022-07-17T09:20:38;3.35;;;1.42;;
49578;SDS011;35483;50.828;3.228;2022-07-17T09:23:09;3.50;;;1.55;;
49578;SDS011;35483;50.828;3.228;2022-07-17T09:25:39;3.58;;;1.50;;
49578;SDS011;35483;50.828;3.228;2022-07-17T09:28:07;4.18;;;1.20;;
49578;SDS011;35483;50.828;3.228;2022-07-17T09:30:36;3.05;;;1.80;;
49578;SDS011;35483;50.828;3.228;2022-07-17T09:33:11;4.40;;;1.65;;
49578;SDS011;35483;50.828;3.228;2022-07-17T09:35:53;4.20;;;1.58;;
49578;SDS011;35483;50.828;3.228;2022-07-17T09:38:34;2.90;;;1.75;;
49578;SDS011;35483;50.828;3.228;2022-07-17T09:43:38;2.80;;;1.75;;
49578;SDS011;35483;50.828;3.228;2022-07-17T09:46:05;4.32;;;1.80;;
49578;SDS011;35483;50.828;3.228;2022-07-17T09:48:32;3.55;;;1.90;;
49578;SDS011;35483;50.828;3.228;2022-07-17T09:50:59;4.53;;;1.63;;
49578;SDS011;35483;50.828;3.228;2022-07-17T09:53:26;3.15;;;1.70;;
49578;SDS011;35483;50.828;3.228;2022-07-17T09:55:52;2.92;;;1.65;;
49578;SDS011;35483;50.828;3.228;2022-07-17T09:58:21;3.42;;;1.65;;
49578;SDS011;35483;50.828;3.228;2022-07-17T10:00:50;2.75;;;1.45;;
49578;SDS011;35483;50.828;3.228;2022-07-17T10:03:18;3.60;;;1.60;;
49578;SDS011;35483;50.828;3.228;2022-07-17T10:05:44;4.00;;;1.60;;
49578;SDS011;35483;50.828;3.228;2022-07-17T10:08:10;3.03;;;2.10;;
49578;SDS011;35483;50.828;3.228;2022-07-17T10:10:37;3.78;;;1.90;;
49578;SDS011;35483;50.828;3.228;2022-07-17T10:13:03;3.83;;;1.80;;
49578;SDS011;35483;50.828;3.228;2022-07-17T10:15:29;3.20;;;1.77;;
49578;SDS011;35483;50.828;3.228;2022-07-17T10:18:05;3.53;;;2.13;;
49578;SDS011;35483;50.828;3.228;2022-07-17T10:20:31;3.97;;;2.20;;
49578;SDS011;35483;50.828;3.228;2022-07-17T10:22:58;4.80;;;1.80;;
49578;SDS011;35483;50.828;3.228;2022-07-17T10:25:24;5.65;;;1.80;;
49578;SDS011;35483;50.828;3.228;2022-07-17T10:27:53;2.88;;;1.98;;
49578;SDS011;35483;50.828;3.228;2022-07-17T10:30:27;3.58;;;2.10;;
49578;SDS011;35483;50.828;3.228;2022-07-17T10:32:58;2.60;;;2.17;;
49578;SDS011;35483;50.828;3.228;2022-07-17T10:35:25;4.25;;;3.00;;
49578;SDS011;35483;50.828;3.228;2022-07-17T10:37:52;3.60;;;2.08;;
49578;SDS011;35483;50.828;3.228;2022-07-17T10:40:23;5.93;;;2.35;;
49578;SDS011;35483;50.828;3.228;2022-07-17T10:47:52;2.72;;;2.10;;
49578;SDS011;35483;50.828;3.228;2022-07-17T10:50:23;3.10;;;2.30;;
49578;SDS011;35483;50.828;3.228;2022-07-17T10:55:52;3.45;;;2.53;;
49578;SDS011;35483;50.828;3.228;2022-07-17T10:58:24;3.08;;;2.70;;
49578;SDS011;35483;50.828;3.228;2022-07-17T11:01:05;3.50;;;2.50;;
49578;SDS011;35483;50.828;3.228;2022-07-17T11:03:35;3.17;;;2.55;;
49578;SDS011;35483;50.828;3.228;2022-07-17T11:06:11;3.47;;;2.58;;
49578;SDS011;35483;50.828;3.228;2022-07-17T11:08:44;2.95;;;2.45;;
49578;SDS011;35483;50.828;3.228;2022-07-17T11:11:15;4.22;;;2.63;;
49578;SDS011;35483;50.828;3.228;2022-07-17T11:13:42;4.15;;;2.53;;
49578;SDS011;35483;50.828;3.228;2022-07-17T11:16:08;4.47;;;2.60;;
49578;SDS011;35483;50.828;3.228;2022-07-17T11:18:34;4.85;;;3.13;;
49578;SDS011;35483;50.828;3.228;2022-07-17T11:21:01;4.05;;;2.90;;
49578;SDS011;35483;50.828;3.228;2022-07-17T11:23:30;5.35;;;3.30;;
49578;SDS011;35483;50.828;3.228;2022-07-17T11:28:31;4.93;;;3.22;;
49578;SDS011;35483;50.828;3.228;2022-07-17T11:30:59;4.22;;;3.10;;
49578;SDS011;35483;50.828;3.228;2022-07-17T11:33:26;4.07;;;3.13;;
49578;SDS011;35483;50.828;3.228;2022-07-17T11:35:52;4.55;;;3.03;;
49578;SDS011;35483;50.828;3.228;2022-07-17T11:38:26;4.55;;;2.80;;
49578;SDS011;35483;50.828;3.228;2022-07-17T11:40:54;5.00;;;2.90;;
49578;SDS011;35483;50.828;3.228;2022-07-17T11:43:20;2.95;;;2.50;;
49578;SDS011;35483;50.828;3.228;2022-07-17T11:45:46;3.92;;;3.20;;
49578;SDS011;35483;50.828;3.228;2022-07-17T11:48:12;3.97;;;3.38;;
49578;SDS011;35483;50.828;3.228;2022-07-17T11:50:38;4.15;;;3.05;;
49578;SDS011;35483;50.828;3.228;2022-07-17T11:53:05;4.35;;;2.90;;
49578;SDS011;35483;50.828;3.228;2022-07-17T11:55:35;4.47;;;3.20;;
49578;SDS011;35483;50.828;3.228;2022-07-17T11:58:02;4.22;;;2.95;;
49578;SDS011;35483;50.828;3.228;2022-07-17T12:00:30;4.70;;;2.90;;
49578;SDS011;35483;50.828;3.228;2022-07-17T12:03:00;5.75;;;3.00;;
49578;SDS011;35483;50.828;3.228;2022-07-17T12:05:27;4.15;;;2.83;;
49578;SDS011;35483;50.828;3.228;2022-07-17T12:07:54;3.70;;;2.85;;
49578;SDS011;35483;50.828;3.228;2022-07-17T12:10:21;3.60;;;2.63;;
49578;SDS011;35483;50.828;3.228;2022-07-17T12:13:04;4.18;;;3.05;;
49578;SDS011;35483;50.828;3.228;2022-07-17T12:15:35;4.93;;;2.45;;
49578;SDS011;35483;50.828;3.228;2022-07-17T12:18:22;4.03;;;2.83;;
49578;SDS011;35483;50.828;3.228;2022-07-17T12:20:53;3.80;;;2.72;;
49578;SDS011;35483;50.828;3.228;2022-07-17T12:26:08;3.50;;;2.80;;
49578;SDS011;35483;50.828;3.228;2022-07-17T12:28:40;3.55;;;2.95;;
49578;SDS011;35483;50.828;3.228;2022-07-17T12:31:10;4.05;;;2.78;;
49578;SDS011;35483;50.828;3.228;2022-07-17T12:33:37;3.10;;;2.70;;
49578;SDS011;35483;50.828;3.228;2022-07-17T12:36:05;5.03;;;3.00;;
49578;SDS011;35483;50.828;3.228;2022-07-17T12:38:31;3.10;;;2.80;;
49578;SDS011;35483;50.828;3.228;2022-07-17T12:40:56;3.45;;;2.70;;
49578;SDS011;35483;50.828;3.228;2022-07-17T12:43:23;3.65;;;3.00;;
49578;SDS011;35483;50.828;3.228;2022-07-17T12:45:49;3.53;;;2.90;;
49578;SDS011;35483;50.828;3.228;2022-07-17T12:48:15;4.78;;;2.90;;
49578;SDS011;35483;50.828;3.228;2022-07-17T12:50:41;3.13;;;2.65;;
49578;SDS011;35483;50.828;3.228;2022-07-17T12:53:07;3.83;;;2.70;;
49578;SDS011;35483;50.828;3.228;2022-07-17T12:55:33;3.63;;;2.47;;
49578;SDS011;35483;50.828;3.228;2022-07-17T12:57:59;4.53;;;2.90;;
49578;SDS011;35483;50.828;3.228;2022-07-17T13:00:25;4.03;;;2.50;;
49578;SDS011;35483;50.828;3.228;2022-07-17T13:02:51;2.80;;;2.60;;
49578;SDS011;35483;50.828;3.228;2022-07-17T13:05:16;4.80;;;2.75;;
49578;SDS011;35483;50.828;3.228;2022-07-17T13:07:43;4.07;;;2.95;;
49578;SDS011;35483;50.828;3.228;2022-07-17T13:10:08;4.22;;;3.28;;
49578;SDS011;35483;50.828;3.228;2022-07-17T13:12:35;4.57;;;3.20;;
49578;SDS011;35483;50.828;3.228;2022-07-17T13:15:01;3.50;;;3.05;;
49578;SDS011;35483;50.828;3.228;2022-07-17T13:17:27;6.85;;;3.75;;
49578;SDS011;35483;50.828;3.228;2022-07-17T13:19:53;4.45;;;3.15;;
49578;SDS011;35483;50.828;3.228;2022-07-17T13:22:19;3.47;;;2.72;;
49578;SDS011;35483;50.828;3.228;2022-07-17T13:24:45;3.92;;;3.45;;
49578;SDS011;35483;50.828;3.228;2022-07-17T13:27:10;5.43;;;3.30;;
49578;SDS011;35483;50.828;3.228;2022-07-17T13:29:36;6.50;;;3.00;;
49578;SDS011;35483;50.828;3.228;2022-07-17T13:32:02;4.35;;;3.33;;
49578;SDS011;35483;50.828;3.228;2022-07-17T13:34:28;4.07;;;3.20;;
49578;SDS011;35483;50.828;3.228;2022-07-17T13:36:55;4.13;;;3.35;;
49578;SDS011;35483;50.828;3.228;2022-07-17T13:39:23;3.88;;;3.08;;
49578;SDS011;35483;50.828;3.228;2022-07-17T13:41:49;4.88;;;3.60;;
49578;SDS011;35483;50.828;3.228;2022-07-17T13:44:15;4.00;;;3.15;;
49578;SDS011;35483;50.828;3.228;2022-07-17T13:46:41;4.93;;;3.05;;
49578;SDS011;35483;50.828;3.228;2022-07-17T13:49:06;4.32;;;3.35;;
49578;SDS011;35483;50.828;3.228;2022-07-17T13:51:33;3.85;;;3.45;;
49578;SDS011;35483;50.828;3.228;2022-07-17T13:54:00;5.35;;;3.17;;
49578;SDS011;35483;50.828;3.228;2022-07-17T13:56:26;3.95;;;3.08;;
49578;SDS011;35483;50.828;3.228;2022-07-17T13:58:51;4.45;;;3.33;;
49578;SDS011;35483;50.828;3.228;2022-07-17T14:01:17;3.90;;;3.13;;
49578;SDS011;35483;50.828;3.228;2022-07-17T14:03:43;4.25;;;3.50;;
49578;SDS011;35483;50.828;3.228;2022-07-17T14:06:09;5.97;;;3.97;;
49578;SDS011;35483;50.828;3.228;2022-07-17T14:08:35;4.00;;;3.08;;
49578;SDS011;35483;50.828;3.228;2022-07-17T14:11:01;4.80;;;3.55;;
49578;SDS011;35483;50.828;3.228;2022-07-17T14:13:28;4.45;;;3.20;;
49578;SDS011;35483;50.828;3.228;2022-07-17T14:15:54;5.55;;;3.22;;
49578;SDS011;35483;50.828;3.228;2022-07-17T14:18:20;4.13;;;3.20;;
49578;SDS011;35483;50.828;3.228;2022-07-17T14:20:46;4.53;;;3.08;;
49578;SDS011;35483;50.828;3.228;2022-07-17T14:23:11;5.15;;;3.42;;
49578;SDS011;35483;50.828;3.228;2022-07-17T14:25:38;5.40;;;3.22;;
49578;SDS011;35483;50.828;3.228;2022-07-17T14:28:03;4.65;;;3.60;;
49578;SDS011;35483;50.828;3.228;2022-07-17T14:30:29;5.80;;;3.38;;
49578;SDS011;35483;50.828;3.228;2022-07-17T14:32:56;4.85;;;3.13;;
49578;SDS011;35483;50.828;3.228;2022-07-17T14:35:22;3.60;;;3.30;;
49578;SDS011;35483;50.828;3.228;2022-07-17T14:37:48;4.32;;;3.65;;
49578;SDS011;35483;50.828;3.228;2022-07-17T14:40:13;4.22;;;3.33;;
49578;SDS011;35483;50.828;3.228;2022-07-17T14:42:39;5.07;;;3.85;;
49578;SDS011;35483;50.828;3.228;2022-07-17T14:45:05;5.28;;;3.22;;
49578;SDS011;35483;50.828;3.228;2022-07-17T14:47:32;4.03;;;3.55;;
49578;SDS011;35483;50.828;3.228;2022-07-17T14:49:57;5.38;;;3.42;;
49578;SDS011;35483;50.828;3.228;2022-07-17T14:52:23;4.35;;;3.30;;
49578;SDS011;35483;50.828;3.228;2022-07-17T14:54:49;4.65;;;3.20;;
49578;SDS011;35483;50.828;3.228;2022-07-17T14:57:15;4.25;;;3.15;;
49578;SDS011;35483;50.828;3.228;2022-07-17T14:59:40;4.50;;;3.40;;
49578;SDS011;35483;50.828;3.228;2022-07-17T15:02:06;3.97;;;3.10;;
49578;SDS011;35483;50.828;3.228;2022-07-17T15:04:32;5.30;;;3.38;;
49578;SDS011;35483;50.828;3.228;2022-07-17T15:07:00;4.13;;;3.67;;